^^
Datos históricos de la estación: Murcia-Puente Tocinos
Diario Informe para Octubre 28, 2021 Unidades:  Métrico    Ingés   Ambas
Diario Semanal Mensual Anual
  Máxima: Mínima: Promedio:
Temperatura: 22.9 °C 13.7 °C 17.6 °C
Punto de rocio: 14.2 °C 11.4 °C 12.8 °C
Humedad: 89% 51.2% 75%
Velocidad viento: 14.8km/h 0km/h 5.6km/h
Racha viento: 25.9km/h - -
Viento- - Sur
Presión: 1019.6 hPa 1014.2 hPa -
Precipitación: 0.0 mm    
 
 
Tabla de datos para Octubre 28, 2021
Hora Temperatura Punto de rocio Presión Viento Velocidad viento Racha viento Humedad Intensidad lluvia(por hora) Nubes
00:04 16.5 °C 13.1 °C 1019.6 hPa SSE 2.9 km/h 3.9 km/h 80% 0.0 mm
00:09 16.5 °C 13.1 °C 1019.6 hPa SSE 2.7 km/h 3.7 km/h 80% 0.0 mm
00:14 16.5 °C 13.1 °C 1019.6 hPa SSE 2.3 km/h 3.7 km/h 80% 0.0 mm
00:19 16.5 °C 13 °C 1019.6 hPa SSE 1.4 km/h 4.7 km/h 80% 0.0 mm
00:24 16.4 °C 12.9 °C 1019.6 hPa Calm   3.7 km/h 80% 0.0 mm
00:29 16.4 °C 13.1 °C 1019.5 hPa SSE 0.9 km/h 5.6 km/h 80.7% 0.0 mm
00:34 16.3 °C 13.1 °C 1019.5 hPa SSE 2.3 km/h 5.8 km/h 81% 0.0 mm
00:39 16.3 °C 13.1 °C 1019.5 hPa SSE 2.6 km/h 5.6 km/h 81% 0.0 mm
00:44 16.3 °C 13.1 °C 1019.4 hPa SSE 3.2 km/h 3.7 km/h 81% 0.0 mm
00:49 16.3 °C 13.1 °C 1019.4 hPa SSE 2.9 km/h 3.7 km/h 81.2% 0.0 mm
00:54 16.3 °C 13.2 °C 1019.4 hPa SSE 2.3 km/h 3.7 km/h 82% 0.0 mm
00:59 16.3 °C 13.2 °C 1019.3 hPa SSE 1.3 km/h 5.6 km/h 82% 0.0 mm
01:04 16.2 °C 13.1 °C 1019.3 hPa Calm   7.4 km/h 82% 0.0 mm
01:09 16.1 °C 13 °C 1019.3 hPa SE 1.5 km/h 7.4 km/h 82% 0.0 mm
01:14 16.1 °C 13.1 °C 1019.3 hPa ESE 3.9 km/h 4.7 km/h 82.4% 0.0 mm
01:19 16.1 °C 13.2 °C 1019.3 hPa ESE 3.2 km/h 7.4 km/h 83% 0.0 mm
01:24 16.1 °C 13.2 °C 1019.3 hPa SSE 2.3 km/h 7.6 km/h 83% 0.0 mm
01:29 16 °C 13.1 °C 1019.2 hPa Sur 3.1 km/h 7.6 km/h 83% 0.0 mm
01:34 16.1 °C 13.1 °C 1019.2 hPa SSO 4.7 km/h 9.3 km/h 82.8% 0.0 mm
01:39 16.1 °C 13 °C 1019.2 hPa SSO 5.3 km/h 9.3 km/h 82% 0.0 mm
01:44 16.1 °C 12.9 °C 1019.2 hPa SSO 6.4 km/h 9.5 km/h 81.5% 0.0 mm
01:49 16.2 °C 12.9 °C 1019.2 hPa Sur 6.4 km/h 9.3 km/h 81% 0.0 mm
01:54 16.2 °C 12.9 °C 1019.2 hPa Sur 6.4 km/h 8.4 km/h 81% 0.0 mm
01:59 16.1 °C 12.8 °C 1019.1 hPa Sur 5.9 km/h 9.5 km/h 81% 0.0 mm
02:04 16.1 °C 12.8 °C 1019.1 hPa Sur 5 km/h 10.3 km/h 81% 0.0 mm
02:09 15.9 °C 12.7 °C 1019.1 hPa SSO 5.7 km/h 11.1 km/h 81% 0.0 mm
02:14 15.8 °C 12.7 °C 1019.0 hPa SSO 6.9 km/h 10 km/h 82% 0.0 mm
02:19 15.7 °C 12.6 °C 1019.0 hPa SSE 6.9 km/h 11.1 km/h 82% 0.0 mm
02:24 15.6 °C 12.6 °C 1019.0 hPa Sur 6.9 km/h 11.1 km/h 82% 0.0 mm
02:29 15.4 °C 12.5 °C 1018.9 hPa SSO 7.2 km/h 12.2 km/h 82.5% 0.0 mm
02:34 15.4 °C 12.5 °C 1018.9 hPa SSO 7.6 km/h 14.8 km/h 83% 0.0 mm
02:39 15.3 °C 12.5 °C 1018.9 hPa SSO 7.9 km/h 11.1 km/h 83% 0.0 mm
02:44 15.3 °C 12.4 °C 1018.7 hPa Sur 8.4 km/h 10 km/h 83% 0.0 mm
02:49 15.3 °C 12.4 °C 1018.7 hPa SSO 7.8 km/h 9.5 km/h 83% 0.0 mm
02:54 15.2 °C 12.4 °C 1018.8 hPa SO 6.9 km/h 9.5 km/h 83.4% 0.0 mm
02:59 15.2 °C 12.5 °C 1018.8 hPa SSO 6.4 km/h 9.3 km/h 84% 0.0 mm
03:04 15.2 °C 12.5 °C 1018.8 hPa SO 5.8 km/h 7.4 km/h 84% 0.0 mm
03:09 15.2 °C 12.5 °C 1018.8 hPa SO 5 km/h 7.4 km/h 84% 0.0 mm
03:14 15.2 °C 12.5 °C 1018.6 hPa SO 3.9 km/h 7.4 km/h 84% 0.0 mm
03:19 15.2 °C 12.5 °C 1018.6 hPa SO 3.5 km/h 5.6 km/h 84% 0.0 mm
03:24 15.2 °C 12.5 °C 1018.6 hPa SO 2.9 km/h 5.8 km/h 84% 0.0 mm
03:29 15.2 °C 12.5 °C 1018.6 hPa SO 3.3 km/h 7.6 km/h 84% 0.0 mm
03:34 15.2 °C 12.5 °C 1018.6 hPa OSO 3.9 km/h 7.4 km/h 84% 0.0 mm
03:39 15.2 °C 12.5 °C 1018.6 hPa OSO 4.2 km/h 7.4 km/h 84% 0.0 mm
03:44 15.1 °C 12.4 °C 1018.4 hPa OSO 4.7 km/h 5.6 km/h 84% 0.0 mm
03:49 15.1 °C 12.4 °C 1018.4 hPa OSO 4.1 km/h 5.8 km/h 84% 0.0 mm
03:54 15.1 °C 12.4 °C 1018.4 hPa OSO 3.2 km/h 5.6 km/h 84% 0.0 mm
03:59 15.1 °C 12.4 °C 1018.2 hPa OSO 3.2 km/h 5.6 km/h 84% 0.0 mm
04:04 15.1 °C 12.4 °C 1018.2 hPa SSO 3.2 km/h 6.4 km/h 84% 0.0 mm
04:09 15.1 °C 12.4 °C 1018.2 hPa SSE 3.2 km/h 8.4 km/h 84% 0.0 mm
04:14 14.9 °C 12.3 °C 1018.1 hPa SSE 3.2 km/h 7.4 km/h 84.7% 0.0 mm
04:19 14.8 °C 12.3 °C 1018.1 hPa Sur 3.8 km/h 7.4 km/h 85% 0.0 mm
04:24 14.7 °C 12.4 °C 1018.1 hPa Sur 4.7 km/h 7.4 km/h 85.8% 0.0 mm
04:29 14.7 °C 12.3 °C 1018.0 hPa SSE 4.8 km/h 9.3 km/h 86% 0.0 mm
04:34 14.6 °C 12.3 °C 1018.0 hPa Sur 5 km/h 7.4 km/h 86.1% 0.0 mm
04:39 14.5 °C 12.4 °C 1018.0 hPa Sur 5 km/h 7.4 km/h 87% 0.0 mm
04:44 14.5 °C 12.3 °C 1017.9 hPa SE 5 km/h 7.6 km/h 87% 0.0 mm
04:49 14.4 °C 12.3 °C 1017.9 hPa SSE 4.9 km/h 7.4 km/h 87% 0.0 mm
04:54 14.4 °C 12.3 °C 1017.9 hPa Sur 4.7 km/h 5.8 km/h 87% 0.0 mm
04:59 14.4 °C 12.3 °C 1017.8 hPa SSO 4.1 km/h 5.8 km/h 87% 0.0 mm
05:04 14.4 °C 12.3 °C 1017.8 hPa SSE 3.2 km/h 7.4 km/h 87% 0.0 mm
05:09 14.3 °C 12.2 °C 1017.8 hPa SSE 3.9 km/h 9.3 km/h 87% 0.0 mm
05:14 14.2 °C 12.1 °C 1017.7 hPa SSE 5 km/h 11.9 km/h 87% 0.0 mm
05:19 14.1 °C 11.9 °C 1017.7 hPa Sur 5.7 km/h 9.5 km/h 87.1% 0.0 mm
05:24 13.9 °C 12 °C 1017.7 hPa SSE 6.9 km/h 9.5 km/h 88% 0.0 mm
05:29 13.8 °C 11.9 °C 1017.7 hPa SSE 6.7 km/h 11.1 km/h 88% 0.0 mm
05:34 13.8 °C 11.8 °C 1017.7 hPa SSE 6.4 km/h 11.1 km/h 88% 0.0 mm
05:39 13.8 °C 11.8 °C 1017.7 hPa Sur 6.4 km/h 10.3 km/h 88% 0.0 mm
05:44 13.8 °C 12 °C 1017.6 hPa SSO 6.4 km/h 11.9 km/h 89% 0.0 mm
05:49 13.8 °C 12 °C 1017.6 hPa SO 6.4 km/h 10.3 km/h 89% 0.0 mm
05:54 13.8 °C 11.9 °C 1017.7 hPa SSO 6.4 km/h 11.1 km/h 88.5% 0.0 mm
05:59 13.9 °C 11.9 °C 1017.7 hPa SSO 6.4 km/h 10 km/h 88% 0.0 mm
06:04 13.9 °C 11.9 °C 1017.7 hPa SSO 6.4 km/h 9.5 km/h 88% 0.0 mm
06:09 13.9 °C 11.9 °C 1017.8 hPa SO 6.4 km/h 11.1 km/h 88% 0.0 mm
06:14 13.9 °C 11.8 °C 1017.8 hPa SSO 6.4 km/h 9.3 km/h 87.1% 0.0 mm
06:19 13.9 °C 11.8 °C 1017.8 hPa SSO 6.2 km/h 10 km/h 87% 0.0 mm
06:24 13.9 °C 11.8 °C 1017.8 hPa Sur 5.8 km/h 7.6 km/h 87% 0.0 mm
06:29 13.9 °C 11.8 °C 1017.7 hPa Sur 5.5 km/h 8.4 km/h 87% 0.0 mm
06:34 13.9 °C 11.8 °C 1017.7 hPa Sur 5 km/h 8.4 km/h 87% 0.0 mm
06:39 13.9 °C 11.8 °C 1017.7 hPa SSO 5.6 km/h 9.5 km/h 87% 0.0 mm
06:44 13.9 °C 11.8 °C 1017.7 hPa SSO 6.4 km/h 9.3 km/h 87% 0.0 mm
06:49 13.9 °C 11.8 °C 1017.7 hPa SO 6.2 km/h 9.3 km/h 87% 0.0 mm
06:54 13.9 °C 11.8 °C 1017.7 hPa SO 5.8 km/h 8.4 km/h 87% 0.0 mm
06:59 13.9 °C 11.8 °C 1017.7 hPa SO 5.3 km/h 7.4 km/h 87% 0.0 mm
07:04 13.9 °C 11.8 °C 1017.7 hPa SO 4.7 km/h 8.7 km/h 87% 0.0 mm
07:09 13.9 °C 11.8 °C 1017.7 hPa SO 4.8 km/h 9.3 km/h 87% 0.0 mm
07:14 13.9 °C 11.8 °C 1017.7 hPa SO 5 km/h 6.4 km/h 87% 0.0 mm
07:19 13.8 °C 11.7 °C 1017.7 hPa SO 4.6 km/h 7.4 km/h 86.7% 0.0 mm
07:24 13.8 °C 11.7 °C 1017.8 hPa SO 3.9 km/h 7.6 km/h 87% 0.0 mm
07:29 13.8 °C 11.7 °C 1017.8 hPa SO 4.2 km/h 9.5 km/h 87% 0.0 mm
07:34 13.8 °C 11.7 °C 1017.8 hPa SO 4.7 km/h 9.5 km/h 87% 0.0 mm
07:39 13.8 °C 11.7 °C 1017.8 hPa SO 5.4 km/h 11.1 km/h 87% 0.0 mm
07:44 13.8 °C 11.7 °C 1017.7 hPa SO 6.4 km/h 8.4 km/h 87% 0.0 mm
07:49 13.8 °C 11.7 °C 1017.7 hPa OSO 5.9 km/h 7.6 km/h 87% 0.0 mm
07:54 13.8 °C 11.7 °C 1017.7 hPa SO 5 km/h 7.6 km/h 87% 0.0 mm
07:59 13.8 °C 11.7 °C 1017.7 hPa SSO 4.9 km/h 7.6 km/h 87% 0.0 mm
08:04 13.8 °C 11.6 °C 1017.7 hPa SSO 4.7 km/h 10 km/h 86.5% 0.0 mm
08:09 13.8 °C 11.5 °C 1017.9 hPa Sur 5.1 km/h 9.3 km/h 86% 0.0 mm
08:14 13.8 °C 11.5 °C 1017.9 hPa SSO 5.8 km/h 7.6 km/h 86% 0.0 mm
08:19 13.8 °C 11.5 °C 1017.9 hPa SSO 5.5 km/h 7.6 km/h 86% 0.0 mm
08:24 13.8 °C 11.5 °C 1018.0 hPa SSO 5 km/h 7.4 km/h 86% 0.0 mm
08:29 13.8 °C 11.5 °C 1018.0 hPa SO 4.5 km/h 7.4 km/h 86% 0.0 mm
08:34 13.8 °C 11.5 °C 1018.0 hPa OSO 3.9 km/h 7.6 km/h 86% 0.0 mm
08:39 13.8 °C 11.5 °C 1018.0 hPa OSO 3.9 km/h 9.3 km/h 86% 0.0 mm
08:44 13.7 °C 11.4 °C 1017.9 hPa SO 3.9 km/h 9.3 km/h 86% 0.0 mm
08:49 13.7 °C 11.4 °C 1017.9 hPa OSO 3.9 km/h 7.4 km/h 86% 0.0 mm
08:54 13.8 °C 11.5 °C 1018.1 hPa OSO 3.9 km/h 5 km/h 86% 0.0 mm
08:59 13.8 °C 11.5 °C 1018.1 hPa OSO 3.5 km/h 5.6 km/h 86% 0.0 mm
09:04 13.8 °C 11.5 °C 1018.1 hPa OSO 2.9 km/h 3.9 km/h 86% 0.0 mm
09:09 13.9 °C 11.6 °C 1018.1 hPa Sur 2.9 km/h 6.4 km/h 86% 0.0 mm
09:14 13.9 °C 11.6 °C 1018.1 hPa SE 2.9 km/h 7.4 km/h 86% 0.0 mm
09:19 13.9 °C 11.6 °C 1018.1 hPa SE 3.3 km/h 7.4 km/h 86% 0.0 mm
09:24 13.9 °C 11.6 °C 1018.2 hPa SE 3.9 km/h 7.4 km/h 86% 0.0 mm
09:29 13.9 °C 11.6 °C 1018.2 hPa ESE 3.6 km/h 5.8 km/h 86% 0.0 mm
09:34 13.9 °C 11.6 °C 1018.2 hPa ESE 3.2 km/h 7.4 km/h 86% 0.0 mm
09:39 13.9 °C 11.6 °C 1018.2 hPa SE 3.7 km/h 8.4 km/h 86% 0.0 mm
09:44 13.9 °C 11.6 °C 1018.2 hPa SE 4.7 km/h 7.4 km/h 86% 0.0 mm
09:49 13.9 °C 11.7 °C 1018.2 hPa SSE 4.7 km/h 8.4 km/h 86.6% 0.0 mm
09:54 13.9 °C 11.6 °C 1018.2 hPa SSE 4.7 km/h 8.7 km/h 86% 0.0 mm
09:59 14 °C 11.7 °C 1018.1 hPa SSE 5.1 km/h 9.3 km/h 85.7% 0.0 mm
10:04 14.2 °C 11.7 °C 1018.1 hPa SSE 5.8 km/h 9.3 km/h 85% 0.0 mm
10:09 14.2 °C 11.7 °C 1018.3 hPa SSO 5.8 km/h 7.4 km/h 84.8% 0.0 mm
10:14 14.3 °C 11.7 °C 1018.3 hPa SSO 5.8 km/h 7.4 km/h 84.1% 0.0 mm
10:19 14.5 °C 11.8 °C 1018.3 hPa SSO 5.3 km/h 8.4 km/h 84% 0.0 mm
10:24 14.7 °C 11.9 °C 1018.3 hPa Sur 4.7 km/h 7.4 km/h 83.7% 0.0 mm
10:29 14.8 °C 11.9 °C 1018.3 hPa SSO 4.7 km/h 9.3 km/h 82.8% 0.0 mm
10:34 14.8 °C 11.8 °C 1018.3 hPa OSO 4.7 km/h 9.3 km/h 82% 0.0 mm
10:39 14.9 °C 11.8 °C 1018.3 hPa SSE 4.8 km/h 7.4 km/h 82% 0.0 mm
10:44 15.1 °C 12 °C 1018.3 hPa SSE 5 km/h 8.7 km/h 82% 0.0 mm
10:49 15.2 °C 12.2 °C 1018.3 hPa SSE 5.3 km/h 10 km/h 82% 0.0 mm
10:54 15.2 °C 12 °C 1018.4 hPa SSE 5.8 km/h 11.9 km/h 81.1% 0.0 mm
10:59 15.3 °C 12.1 °C 1018.4 hPa SSE 6.9 km/h 13 km/h 81.2% 0.0 mm
11:04 15.4 °C 12.2 °C 1018.4 hPa SE 8.4 km/h 13 km/h 81% 0.0 mm
11:09 15.4 °C 12.2 °C 1018.4 hPa SSE 8.8 km/h 13 km/h 80.9% 0.0 mm
11:14 15.6 °C 12.2 °C 1018.3 hPa SSE 9.5 km/h 11.1 km/h 80.4% 0.0 mm
11:19 15.8 °C 12.4 °C 1018.3 hPa SSE 8.5 km/h 9.3 km/h 79.9% 0.0 mm
11:24 16.2 °C 12.4 °C 1018.3 hPa SSE 6.9 km/h 11.1 km/h 78.6% 0.0 mm
11:29 16.5 °C 12.6 °C 1018.2 hPa SSE 6.5 km/h 9.3 km/h 77.7% 0.0 mm
11:34 16.8 °C 12.4 °C 1018.2 hPa SSO 5.8 km/h 9.5 km/h 75.6% 0.0 mm
11:39 16.8 °C 12.3 °C 1018.2 hPa OSO 5.5 km/h 7.4 km/h 74.4% 0.0 mm
11:44 17.1 °C 12.5 °C 1018.1 hPa SO 5 km/h 9.5 km/h 74.3% 0.0 mm
11:49 17.3 °C 12.4 °C 1018.1 hPa Sur 4.6 km/h 7.4 km/h 72.7% 0.0 mm
11:54 17.5 °C 12.4 °C 1018.1 hPa SE 3.9 km/h 7.6 km/h 72% 0.0 mm
11:59 17.8 °C 12.6 °C 1018.0 hPa SE 3.9 km/h 5.6 km/h 71.7% 0.0 mm
12:04 18.2 °C 12.7 °C 1018.0 hPa Este 3.9 km/h 7.6 km/h 70.4% 0.0 mm
12:09 18.3 °C 12.5 °C 1018.0 hPa NO 3.6 km/h 7.6 km/h 69.1% 0.0 mm
12:14 18.3 °C 12.5 °C 1017.9 hPa NO 3.2 km/h 5.8 km/h 69% 0.0 mm
12:19 18.6 °C 12.8 °C 1017.9 hPa North 3.1 km/h 7.6 km/h 68.8% 0.0 mm
12:24 19 °C 12.7 °C 1017.9 hPa Sur 2.9 km/h 7.4 km/h 67% 0.0 mm
12:29 19.2 °C 12.7 °C 1017.9 hPa Oeste 3.3 km/h 9.3 km/h 66.3% 0.0 mm
12:34 19.3 °C 12.7 °C 1017.9 hPa ONO 3.9 km/h 5.6 km/h 66% 0.0 mm
12:39 19.4 °C 12.9 °C 1017.9 hPa SSE 3.5 km/h 9.5 km/h 66% 0.0 mm
12:44 19.8 °C 12.9 °C 1017.6 hPa SSO 2.9 km/h 9.3 km/h 64.7% 0.0 mm
12:49 19.8 °C 12.8 °C 1017.6 hPa Oeste 3.6 km/h 8.4 km/h 64% 0.0 mm
12:54 19.7 °C 12.8 °C 1017.6 hPa OSO 4.7 km/h 6.4 km/h 64.3% 0.0 mm
12:59 19.9 °C 13 °C 1017.6 hPa SSO 4 km/h 7.6 km/h 64.3% 0.0 mm
13:04 20.2 °C 13 °C 1017.6 hPa SSE 3.2 km/h 5.6 km/h 63.7% 0.0 mm
13:09 20.4 °C 12.9 °C 1017.6 hPa Este 3.1 km/h 5.8 km/h 62.4% 0.0 mm
13:14 20.5 °C 12.9 °C 1017.3 hPa NO 2.9 km/h 7.4 km/h 62% 0.0 mm
13:19 20.6 °C 13.1 °C 1017.3 hPa North 3 km/h 7.6 km/h 62.2% 0.0 mm
13:24 20.6 °C 13.1 °C 1017.3 hPa OSO 3.2 km/h 8.7 km/h 62% 0.0 mm
13:29 20.6 °C 13 °C 1017.3 hPa North 3.8 km/h 9.3 km/h 61.5% 0.0 mm
13:34 20.6 °C 13.1 °C 1017.3 hPa ONO 4.7 km/h 9.3 km/h 62% 0.0 mm
13:39 20.5 °C 13 °C 1017.3 hPa ONO 4.8 km/h 9.3 km/h 62% 0.0 mm
13:44 20.5 °C 13 °C 1017.0 hPa ONO 5 km/h 11.9 km/h 62% 0.0 mm
13:49 20.6 °C 13.1 °C 1017.0 hPa NO 4.9 km/h 12.2 km/h 62.3% 0.0 mm
13:54 20.7 °C 13.3 °C 1017.0 hPa NNE 4.7 km/h 13 km/h 62.5% 0.0 mm
13:59 20.9 °C 13.2 °C 1016.7 hPa Este 4.8 km/h 7.4 km/h 61.2% 0.0 mm
14:04 21.1 °C 13.1 °C 1016.7 hPa Oeste 5 km/h 8.4 km/h 60.1% 0.0 mm
14:09 21.3 °C 13 °C 1016.7 hPa Sur 4.5 km/h 8.4 km/h 59.3% 0.0 mm
14:14 21.6 °C 13.1 °C 1016.3 hPa SO 3.9 km/h 5.8 km/h 58.6% 0.0 mm
14:19 21.7 °C 13 °C 1016.3 hPa SO 3.9 km/h 9.3 km/h 57.8% 0.0 mm
14:24 21.8 °C 13.2 °C 1016.3 hPa North 3.9 km/h 9.3 km/h 58.2% 0.0 mm
14:29 21.8 °C 13.1 °C 1016.1 hPa NNE 4.2 km/h 8.4 km/h 57.9% 0.0 mm
14:34 21.9 °C 13.4 °C 1016.1 hPa NE 4.7 km/h 9.5 km/h 58.5% 0.0 mm
14:39 22 °C 13.4 °C 1016.1 hPa NO 4.7 km/h 11.1 km/h 58.1% 0.0 mm
14:44 22.1 °C 13.5 °C 1015.9 hPa NNO 4.7 km/h 12.2 km/h 58.4% 0.0 mm
14:49 22.2 °C 13.6 °C 1015.9 hPa NNO 5.1 km/h 13 km/h 58.4% 0.0 mm
14:54 22.2 °C 13.5 °C 1015.9 hPa NNO 5.8 km/h 13 km/h 58% 0.0 mm
14:59 22.2 °C 13.5 °C 1015.6 hPa NNE 6.5 km/h 11.1 km/h 57.9% 0.0 mm
15:04 22.2 °C 13.3 °C 1015.6 hPa NE 7.6 km/h 13.7 km/h 57% 0.0 mm
15:09 22.3 °C 13.1 °C 1015.6 hPa NNE 6.9 km/h 9.3 km/h 56% 0.0 mm
15:14 22.4 °C 13.2 °C 1015.5 hPa NNE 5.8 km/h 14.8 km/h 56.1% 0.0 mm
15:19 22.4 °C 13.5 °C 1015.5 hPa North 6.2 km/h 14.8 km/h 57% 0.0 mm
15:24 22.2 °C 13.4 °C 1015.5 hPa North 6.9 km/h 14.8 km/h 57.2% 0.0 mm
15:29 22.2 °C 13.1 °C 1015.4 hPa NE 7.5 km/h 14.8 km/h 56.3% 0.0 mm
15:34 22.2 °C 13.1 °C 1015.4 hPa North 8.4 km/h 11.9 km/h 56.3% 0.0 mm
15:39 22.3 °C 13.4 °C 1015.4 hPa NE 7.7 km/h 13 km/h 57% 0.0 mm
15:44 22.4 °C 13.2 °C 1015.1 hPa ENE 6.4 km/h 13 km/h 56% 0.0 mm
15:49 22.3 °C 13.1 °C 1015.1 hPa NNE 6.9 km/h 14.8 km/h 56% 0.0 mm
15:54 22.4 °C 13.2 °C 1015.1 hPa NNE 7.6 km/h 18.5 km/h 56% 0.0 mm
15:59 22.5 °C 12.8 °C 1014.9 hPa NE 7.6 km/h 14.8 km/h 54.6% 0.0 mm
16:04 22.5 °C 12.7 °C 1014.9 hPa NNE 7.6 km/h 14 km/h 54% 0.0 mm
16:09 22.6 °C 12.8 °C 1014.9 hPa NE 8.3 km/h 18.5 km/h 54% 0.0 mm
16:14 22.7 °C 12.7 °C 1014.8 hPa NE 9.5 km/h 14 km/h 53.2% 0.0 mm
16:19 22.7 °C 12.6 °C 1014.8 hPa NE 8.8 km/h 14.8 km/h 53% 0.0 mm
16:24 22.8 °C 12.5 °C 1014.8 hPa ENE 7.6 km/h 14.8 km/h 52.3% 0.0 mm
16:29 22.7 °C 12.4 °C 1014.7 hPa NE 8 km/h 14.8 km/h 52.1% 0.0 mm
16:34 22.7 °C 12.5 °C 1014.7 hPa ENE 8.7 km/h 13 km/h 52.7% 0.0 mm
16:39 22.8 °C 12.4 °C 1014.7 hPa Este 7.8 km/h 13 km/h 52.2% 0.0 mm
16:44 22.9 °C 12.5 °C 1014.5 hPa ENE 6.4 km/h 19 km/h 51.9% 0.0 mm
16:49 22.9 °C 12.4 °C 1014.5 hPa ESE 7.3 km/h 18.5 km/h 51.6% 0.0 mm
16:54 22.9 °C 12.3 °C 1014.5 hPa ESE 8.7 km/h 13.7 km/h 51.2% 0.0 mm
16:59 22.9 °C 12.3 °C 1014.3 hPa SE 8 km/h 11.9 km/h 51.4% 0.0 mm
17:04 22.9 °C 12.5 °C 1014.3 hPa ESE 6.9 km/h 19 km/h 52% 0.0 mm
17:09 22.7 °C 12.8 °C 1014.3 hPa ESE 7.9 km/h 19 km/h 53.4% 0.0 mm
17:14 22.6 °C 12.8 °C 1014.2 hPa ESE 9.5 km/h 18.5 km/h 54% 0.0 mm
17:19 22.7 °C 12.9 °C 1014.2 hPa ESE 10.5 km/h 24.1 km/h 54% 0.0 mm
17:24 22.7 °C 12.9 °C 1014.3 hPa ESE 11.9 km/h 19 km/h 54% 0.0 mm
17:29 22.7 °C 13.2 °C 1014.3 hPa ESE 11.3 km/h 20.9 km/h 55% 0.0 mm
17:34 22.7 °C 13.1 °C 1014.3 hPa ESE 10.3 km/h 21.7 km/h 54.8% 0.0 mm
17:39 22.4 °C 13.1 °C 1014.3 hPa SE 11.7 km/h 22.2 km/h 55.7% 0.0 mm
17:44 22.2 °C 13.3 °C 1014.3 hPa ESE 13.7 km/h 20.4 km/h 56.9% 0.0 mm
17:49 22.1 °C 13.2 °C 1014.3 hPa SE 13 km/h 18.5 km/h 57.3% 0.0 mm
17:54 21.9 °C 13.4 °C 1014.3 hPa ESE 11.9 km/h 22.5 km/h 58.6% 0.0 mm
17:59 21.8 °C 13.5 °C 1014.2 hPa ESE 11.9 km/h 22.2 km/h 59.3% 0.0 mm
18:04 21.7 °C 13.6 °C 1014.2 hPa ESE 11.9 km/h 14.8 km/h 60% 0.0 mm
18:09 21.7 °C 13.8 °C 1014.4 hPa ESE 11.1 km/h 20.9 km/h 60.9% 0.0 mm
18:14 21.5 °C 13.7 °C 1014.4 hPa ESE 10 km/h 22.2 km/h 61% 0.0 mm
18:19 21.4 °C 13.7 °C 1014.4 hPa SE 11.2 km/h 22.5 km/h 61.5% 0.0 mm
18:24 21.3 °C 13.9 °C 1014.5 hPa ESE 13 km/h 24.1 km/h 62.7% 0.0 mm
18:29 21.2 °C 14 °C 1014.5 hPa ESE 13.7 km/h 24.1 km/h 63.9% 0.0 mm
18:34 21.1 °C 14 °C 1014.5 hPa ESE 14.8 km/h 25.9 km/h 64% 0.0 mm
18:39 21 °C 14 °C 1014.5 hPa SE 13.8 km/h 14.8 km/h 64% 0.0 mm
18:44 21 °C 14 °C 1014.4 hPa SE 12.2 km/h 16.7 km/h 64% 0.0 mm
18:49 21 °C 13.9 °C 1014.4 hPa SE 11.1 km/h 14.8 km/h 64% 0.0 mm
18:54 20.9 °C 13.7 °C 1014.6 hPa SSE 9.5 km/h 14.8 km/h 63.3% 0.0 mm
18:59 20.8 °C 13.5 °C 1014.6 hPa SE 8.7 km/h 22.5 km/h 63% 0.0 mm
19:04 20.7 °C 13.6 °C 1014.6 hPa ESE 7.6 km/h 22.2 km/h 63.8% 0.0 mm
19:09 20.6 °C 13.6 °C 1014.7 hPa SE 9 km/h 15.6 km/h 64% 0.0 mm
19:14 20.6 °C 13.5 °C 1014.7 hPa SE 11.1 km/h 18.3 km/h 64% 0.0 mm
19:19 20.4 °C 13.4 °C 1014.7 hPa SSE 10.5 km/h 18.5 km/h 64% 0.0 mm
19:24 20.4 °C 13.3 °C 1014.8 hPa SE 9.5 km/h 14.8 km/h 64.1% 0.0 mm
19:29 20.3 °C 13.5 °C 1014.8 hPa SE 8.8 km/h 16.7 km/h 65% 0.0 mm
19:34 20.2 °C 13.5 °C 1014.8 hPa SE 7.6 km/h 13 km/h 65.3% 0.0 mm
19:39 20.1 °C 13.6 °C 1014.8 hPa SE 7.9 km/h 19.8 km/h 66% 0.0 mm
19:44 20 °C 13.7 °C 1014.8 hPa SE 8.4 km/h 20.4 km/h 67% 0.0 mm
19:49 19.9 °C 13.6 °C 1014.8 hPa SE 8.4 km/h 13 km/h 67% 0.0 mm
19:54 19.8 °C 13.6 °C 1014.9 hPa SE 8.4 km/h 11.9 km/h 67.4% 0.0 mm
19:59 19.7 °C 13.5 °C 1014.9 hPa Sur 7.5 km/h 13.7 km/h 67.3% 0.0 mm
20:04 19.7 °C 13.5 °C 1014.9 hPa Sur 6.4 km/h 9.3 km/h 67.6% 0.0 mm
20:09 19.7 °C 13.6 °C 1015.1 hPa SSO 6.2 km/h 11.1 km/h 68% 0.0 mm
20:14 19.6 °C 13.7 °C 1015.1 hPa Sur 5.8 km/h 12.2 km/h 68.7% 0.0 mm
20:19 19.6 °C 13.9 °C 1015.1 hPa SE 6.5 km/h 13.7 km/h 69.4% 0.0 mm
20:24 19.6 °C 14 °C 1015.2 hPa SE 7.6 km/h 11.9 km/h 70% 0.0 mm
20:29 19.5 °C 13.9 °C 1015.2 hPa SE 7.3 km/h 13 km/h 70.1% 0.0 mm
20:34 19.4 °C 14 °C 1015.2 hPa SSE 6.9 km/h 14.8 km/h 71% 0.0 mm
20:39 19.4 °C 14 °C 1015.2 hPa SSE 6.9 km/h 11.1 km/h 71% 0.0 mm
20:44 19.3 °C 13.9 °C 1015.2 hPa Sur 6.9 km/h 11.1 km/h 71% 0.0 mm
20:49 19.3 °C 14 °C 1015.2 hPa Sur 6.7 km/h 11.1 km/h 71.6% 0.0 mm
20:54 19.2 °C 14.1 °C 1015.3 hPa Sur 6.4 km/h 9.3 km/h 72% 0.0 mm
20:59 19.2 °C 14.1 °C 1015.3 hPa Sur 5.8 km/h 7.4 km/h 72% 0.0 mm
21:04 19.2 °C 14 °C 1015.3 hPa Sur 5 km/h 7.4 km/h 72% 0.0 mm
21:09 19.1 °C 13.9 °C 1015.4 hPa SSE 4.6 km/h 5.8 km/h 72% 0.0 mm
21:14 19.1 °C 14.1 °C 1015.4 hPa SSE 3.9 km/h 6.9 km/h 72.8% 0.0 mm
21:19 19.1 °C 14.2 °C 1015.4 hPa SE 3.6 km/h 7.4 km/h 73% 0.0 mm
21:24 19.1 °C 14.2 °C 1015.4 hPa SE 3.2 km/h 5.8 km/h 73% 0.0 mm
21:29 19.1 °C 14.2 °C 1015.3 hPa SE 3.2 km/h 7.4 km/h 73% 0.0 mm
21:34 19 °C 14.1 °C 1015.3 hPa SSE 3.2 km/h 7.4 km/h 73% 0.0 mm
21:39 19 °C 14.1 °C 1015.3 hPa SSE 3.5 km/h 4.7 km/h 73% 0.0 mm
21:44 18.9 °C 14 °C 1015.3 hPa SSE 3.9 km/h 5.6 km/h 73% 0.0 mm
21:49 18.9 °C 14 °C 1015.3 hPa SSE 3.5 km/h 3.7 km/h 73.4% 0.0 mm
21:54 18.9 °C 14.2 °C 1015.5 hPa Sur 2.9 km/h 7.4 km/h 74% 0.0 mm
21:59 18.8 °C 14 °C 1015.5 hPa ONO 2.9 km/h 7.4 km/h 74% 0.0 mm
22:04 18.6 °C 13.9 °C 1015.5 hPa ONO 2.9 km/h 6.4 km/h 74.2% 0.0 mm
22:09 18.4 °C 13.9 °C 1015.6 hPa NO 3.3 km/h 7.4 km/h 75% 0.0 mm
22:14 18.2 °C 13.8 °C 1015.6 hPa NO 3.9 km/h 7.4 km/h 75.6% 0.0 mm
22:19 18 °C 13.8 °C 1015.6 hPa NO 3.9 km/h 5.8 km/h 76.3% 0.0 mm
22:24 17.8 °C 13.8 °C 1015.6 hPa NO 3.9 km/h 7.4 km/h 77.2% 0.0 mm
22:29 17.7 °C 13.8 °C 1015.6 hPa ONO 3.9 km/h 7.4 km/h 78% 0.0 mm
22:34 17.5 °C 13.8 °C 1015.6 hPa ONO 3.9 km/h 5.6 km/h 78.8% 0.0 mm
22:39 17.4 °C 13.8 °C 1015.6 hPa ONO 3.2 km/h 3.7 km/h 79.3% 0.0 mm
22:44 17.4 °C 13.9 °C 1015.5 hPa ONO 2.3 km/h 5.8 km/h 80.2% 0.0 mm
22:49 17.4 °C 14.1 °C 1015.5 hPa NO 2.5 km/h 4.7 km/h 81% 0.0 mm
22:54 17.4 °C 14.1 °C 1015.6 hPa NO 2.9 km/h 3.9 km/h 81% 0.0 mm
22:59 17.4 °C 14.1 °C 1015.6 hPa NO 1.6 km/h 3.7 km/h 81% 0.0 mm
23:04 17.3 °C 14 °C 1015.6 hPa Calm   7.4 km/h 81% 0.0 mm
23:09 17.2 °C 13.9 °C 1015.6 hPa ONO 1.3 km/h 5.6 km/h 81% 0.0 mm
23:14 17.2 °C 14.1 °C 1015.5 hPa ONO 3.2 km/h 5.6 km/h 81.8% 0.0 mm
23:19 17.1 °C 14 °C 1015.5 hPa ONO 2.9 km/h 4.7 km/h 82% 0.0 mm
23:24 17.1 °C 14 °C 1015.5 hPa ONO 2.3 km/h 6.9 km/h 82% 0.0 mm
23:29 16.9 °C 13.9 °C 1015.5 hPa Oeste 2.8 km/h 9.3 km/h 82.1% 0.0 mm
Murcia-Puente Tocinos, Espa?a
Compliments of Weather Underground - 3 mb

La estación de MeteoMurcia.com, publica sus datos en los siguientes proyectos:

Weather Underground PWS IMURCIAP2 Meteoclimatic www.awekas.at

W3Counter
Web Analytics